sensor_id;sensor_type;location;lat;lon;timestamp;pressure;altitude;pressure_sealevel;temperature;humidity
22389;BME280;11362;48.102;11.620;2023-04-22T00:00:39;94679.59;;;21.03;35.08
22389;BME280;11362;48.102;11.620;2023-04-22T00:03:05;94679.94;;;21.05;34.94
22389;BME280;11362;48.102;11.620;2023-04-22T00:05:30;94681.16;;;21.04;35.18
22389;BME280;11362;48.102;11.620;2023-04-22T00:07:55;94684.72;;;21.05;35.10
22389;BME280;11362;48.102;11.620;2023-04-22T00:10:21;94680.38;;;21.04;35.17
22389;BME280;11362;48.102;11.620;2023-04-22T00:12:46;94683.16;;;21.04;35.35
22389;BME280;11362;48.102;11.620;2023-04-22T00:15:11;94677.63;;;21.04;35.21
22389;BME280;11362;48.102;11.620;2023-04-22T00:17:37;94674.44;;;21.05;35.08
22389;BME280;11362;48.102;11.620;2023-04-22T00:20:02;94673.28;;;21.03;35.16
22389;BME280;11362;48.102;11.620;2023-04-22T00:22:28;94673.28;;;21.03;34.99
22389;BME280;11362;48.102;11.620;2023-04-22T00:24:53;94672.09;;;21.04;35.17
22389;BME280;11362;48.102;11.620;2023-04-22T00:27:18;94668.91;;;21.05;35.26
22389;BME280;11362;48.102;11.620;2023-04-22T00:29:44;94667.34;;;21.04;35.16
22389;BME280;11362;48.102;11.620;2023-04-22T00:32:09;94672.09;;;21.04;35.06
22389;BME280;11362;48.102;11.620;2023-04-22T00:34:34;94678.78;;;21.03;34.77
22389;BME280;11362;48.102;11.620;2023-04-22T00:37:00;94690.63;;;21.03;34.96
22389;BME280;11362;48.102;11.620;2023-04-22T00:39:25;94686.31;;;21.02;35.49
22389;BME280;11362;48.102;11.620;2023-04-22T00:41:51;94679.22;;;21.01;35.08
22389;BME280;11362;48.102;11.620;2023-04-22T00:44:17;94677.25;;;21.02;35.21
22389;BME280;11362;48.102;11.620;2023-04-22T00:46:42;94676.03;;;21.03;35.14
22389;BME280;11362;48.102;11.620;2023-04-22T00:49:07;94675.69;;;21.01;35.16
22389;BME280;11362;48.102;11.620;2023-04-22T00:51:33;94673.72;;;21.01;35.05
22389;BME280;11362;48.102;11.620;2023-04-22T00:53:58;94679.22;;;21.01;34.87
22389;BME280;11362;48.102;11.620;2023-04-22T00:56:25;94673.72;;;21.01;35.36
22389;BME280;11362;48.102;11.620;2023-04-22T00:58:52;94676.47;;;21.01;35.21
22389;BME280;11362;48.102;11.620;2023-04-22T01:01:18;94673.72;;;21.01;35.25
22389;BME280;11362;48.102;11.620;2023-04-22T01:03:45;94670.94;;;21.01;35.30
22389;BME280;11362;48.102;11.620;2023-04-22T01:06:12;94678.78;;;21.03;35.03
22389;BME280;11362;48.102;11.620;2023-04-22T01:08:39;94676.03;;;21.03;35.13
22389;BME280;11362;48.102;11.620;2023-04-22T01:11:04;94682.75;;;21.02;35.02
22389;BME280;11362;48.102;11.620;2023-04-22T01:13:29;94680.00;;;21.02;35.05
22389;BME280;11362;48.102;11.620;2023-04-22T01:15:54;94670.50;;;21.03;35.17
22389;BME280;11362;48.102;11.620;2023-04-22T01:18:20;94673.28;;;21.03;35.04
22389;BME280;11362;48.102;11.620;2023-04-22T01:20:46;94675.28;;;21.02;35.63
22389;BME280;11362;48.102;11.620;2023-04-22T01:23:18;94682.00;;;21.01;35.04
22389;BME280;11362;48.102;11.620;2023-04-22T01:25:45;94672.50;;;21.02;35.14
22389;BME280;11362;48.102;11.620;2023-04-22T01:28:10;94678.78;;;21.03;35.16
22389;BME280;11362;48.102;11.620;2023-04-22T01:30:36;94676.03;;;21.03;35.15
22389;BME280;11362;48.102;11.620;2023-04-22T01:33:02;94671.72;;;21.02;35.16
22389;BME280;11362;48.102;11.620;2023-04-22T01:35:27;94676.03;;;21.03;35.04
22389;BME280;11362;48.102;11.620;2023-04-22T01:37:53;94680.00;;;21.02;35.03
22389;BME280;11362;48.102;11.620;2023-04-22T01:40:19;94674.47;;;21.02;35.62
22389;BME280;11362;48.102;11.620;2023-04-22T01:42:45;94679.22;;;21.01;35.16
22389;BME280;11362;48.102;11.620;2023-04-22T01:45:10;94671.34;;;21.00;35.36
22389;BME280;11362;48.102;11.620;2023-04-22T01:47:35;94682.75;;;21.02;35.10
22389;BME280;11362;48.102;11.620;2023-04-22T01:50:01;94679.22;;;21.01;35.20
22389;BME280;11362;48.102;11.620;2023-04-22T01:52:26;94679.22;;;21.01;35.12
22389;BME280;11362;48.102;11.620;2023-04-22T01:54:51;94675.69;;;21.01;35.08
22389;BME280;11362;48.102;11.620;2023-04-22T01:57:17;94672.91;;;21.01;35.09
22389;BME280;11362;48.102;11.620;2023-04-22T01:59:42;94685.53;;;21.02;35.15
22389;BME280;11362;48.102;11.620;2023-04-22T02:02:07;94682.75;;;21.02;34.92
22389;BME280;11362;48.102;11.620;2023-04-22T02:04:32;94682.00;;;21.01;35.36
22389;BME280;11362;48.102;11.620;2023-04-22T02:06:58;94683.97;;;21.01;35.08
22389;BME280;11362;48.102;11.620;2023-04-22T02:09:23;94685.53;;;21.02;35.26
22389;BME280;11362;48.102;11.620;2023-04-22T02:11:48;94700.13;;;21.02;35.18
22389;BME280;11362;48.102;11.620;2023-04-22T02:14:14;94690.28;;;21.01;35.16
22389;BME280;11362;48.102;11.620;2023-04-22T02:16:40;94682.75;;;21.02;35.14
22389;BME280;11362;48.102;11.620;2023-04-22T02:19:05;94683.97;;;21.01;35.16
22389;BME280;11362;48.102;11.620;2023-04-22T02:21:30;94686.31;;;21.02;35.19
22389;BME280;11362;48.102;11.620;2023-04-22T02:23:56;94683.19;;;21.00;35.06
22389;BME280;11362;48.102;11.620;2023-04-22T02:26:21;94687.91;;;21.00;34.96
22389;BME280;11362;48.102;11.620;2023-04-22T02:28:46;94688.72;;;21.00;35.20
22389;BME280;11362;48.102;11.620;2023-04-22T02:31:12;94680.84;;;20.99;35.10
22389;BME280;11362;48.102;11.620;2023-04-22T02:33:37;94687.13;;;20.99;35.14
22389;BME280;11362;48.102;11.620;2023-04-22T02:36:02;94679.63;;;21.00;35.08
22389;BME280;11362;48.102;11.620;2023-04-22T02:38:28;94682.41;;;21.00;35.00
22389;BME280;11362;48.102;11.620;2023-04-22T02:40:53;94688.28;;;21.02;35.02
22389;BME280;11362;48.102;11.620;2023-04-22T02:43:18;94683.97;;;21.01;35.08
22389;BME280;11362;48.102;11.620;2023-04-22T02:45:43;94683.97;;;21.01;35.26
22389;BME280;11362;48.102;11.620;2023-04-22T02:48:09;94682.41;;;21.00;35.02
22389;BME280;11362;48.102;11.620;2023-04-22T02:50:34;94680.44;;;21.00;35.10
22389;BME280;11362;48.102;11.620;2023-04-22T02:52:59;94681.19;;;21.01;35.12
22389;BME280;11362;48.102;11.620;2023-04-22T02:55:25;94682.41;;;21.00;35.13
22389;BME280;11362;48.102;11.620;2023-04-22T02:57:50;94685.94;;;21.00;35.10
22389;BME280;11362;48.102;11.620;2023-04-22T03:00:15;94681.19;;;21.01;35.19
22389;BME280;11362;48.102;11.620;2023-04-22T03:02:41;94683.97;;;21.01;35.13
22389;BME280;11362;48.102;11.620;2023-04-22T03:05:06;94671.34;;;21.00;35.01
22389;BME280;11362;48.102;11.620;2023-04-22T03:07:32;94676.88;;;21.00;35.06
22389;BME280;11362;48.102;11.620;2023-04-22T03:09:57;94667.41;;;21.01;35.17
22389;BME280;11362;48.102;11.620;2023-04-22T03:12:23;94672.91;;;21.01;35.12
22389;BME280;11362;48.102;11.620;2023-04-22T03:14:49;94664.63;;;21.01;35.06
22389;BME280;11362;48.102;11.620;2023-04-22T03:17:14;94669.38;;;21.00;35.08
22389;BME280;11362;48.102;11.620;2023-04-22T03:19:39;94670.56;;;20.99;35.03
22389;BME280;11362;48.102;11.620;2023-04-22T03:22:05;94664.28;;;20.99;35.28
22389;BME280;11362;48.102;11.620;2023-04-22T03:24:30;94672.16;;;21.00;35.11
22389;BME280;11362;48.102;11.620;2023-04-22T03:26:55;94667.41;;;21.01;35.03
22389;BME280;11362;48.102;11.620;2023-04-22T03:29:21;94667.03;;;20.99;35.10
22389;BME280;11362;48.102;11.620;2023-04-22T03:31:46;94666.63;;;21.00;35.11
22389;BME280;11362;48.102;11.620;2023-04-22T03:34:11;94670.56;;;20.99;35.06
22389;BME280;11362;48.102;11.620;2023-04-22T03:36:36;94657.19;;;20.98;34.98
22389;BME280;11362;48.102;11.620;2023-04-22T03:39:02;94663.88;;;21.00;34.99
22389;BME280;11362;48.102;11.620;2023-04-22T03:41:27;94672.16;;;21.00;35.17
22389;BME280;11362;48.102;11.620;2023-04-22T03:43:53;94664.28;;;20.99;35.19
22389;BME280;11362;48.102;11.620;2023-04-22T03:46:18;94674.13;;;21.00;35.17
22389;BME280;11362;48.102;11.620;2023-04-22T03:48:43;94665.03;;;20.99;35.10
22389;BME280;11362;48.102;11.620;2023-04-22T03:51:09;94669.78;;;20.99;35.04
22389;BME280;11362;48.102;11.620;2023-04-22T03:53:34;94669.78;;;20.99;35.04
22389;BME280;11362;48.102;11.620;2023-04-22T03:55:59;94678.84;;;20.99;35.22
22389;BME280;11362;48.102;11.620;2023-04-22T03:58:24;94679.63;;;21.00;34.79
22389;BME280;11362;48.102;11.620;2023-04-22T04:00:50;94687.91;;;21.00;35.13
22389;BME280;11362;48.102;11.620;2023-04-22T04:03:15;94681.59;;;20.99;35.14
22389;BME280;11362;48.102;11.620;2023-04-22T04:05:40;94681.59;;;20.99;34.93
22389;BME280;11362;48.102;11.620;2023-04-22T04:08:06;94676.53;;;20.98;34.97
22389;BME280;11362;48.102;11.620;2023-04-22T04:10:31;94682.03;;;20.98;35.03
22389;BME280;11362;48.102;11.620;2023-04-22T04:12:56;94676.53;;;20.98;35.23
22389;BME280;11362;48.102;11.620;2023-04-22T04:15:21;94676.53;;;20.98;35.27
22389;BME280;11362;48.102;11.620;2023-04-22T04:17:47;94682.81;;;20.98;35.04
22389;BME280;11362;48.102;11.620;2023-04-22T04:20:13;94680.47;;;20.97;35.12
22389;BME280;11362;48.102;11.620;2023-04-22T04:22:38;94684.81;;;20.98;35.11
22389;BME280;11362;48.102;11.620;2023-04-22T04:25:04;94681.59;;;20.99;35.13
22389;BME280;11362;48.102;11.620;2023-04-22T04:27:29;94683.59;;;20.99;35.07
22389;BME280;11362;48.102;11.620;2023-04-22T04:29:55;94679.63;;;21.00;34.85
22389;BME280;11362;48.102;11.620;2023-04-22T04:32:21;94680.47;;;20.97;34.93
22389;BME280;11362;48.102;11.620;2023-04-22T04:34:47;94680.47;;;20.97;35.18
22389;BME280;11362;48.102;11.620;2023-04-22T04:37:12;94674.97;;;20.97;35.05
22389;BME280;11362;48.102;11.620;2023-04-22T04:39:37;94666.69;;;20.97;35.17
22389;BME280;11362;48.102;11.620;2023-04-22T04:42:03;94665.88;;;20.96;35.10
22389;BME280;11362;48.102;11.620;2023-04-22T04:44:28;94668.22;;;20.98;35.03
22389;BME280;11362;48.102;11.620;2023-04-22T04:46:53;94666.25;;;20.98;35.07
22389;BME280;11362;48.102;11.620;2023-04-22T04:49:19;94661.16;;;20.97;35.05
22389;BME280;11362;48.102;11.620;2023-04-22T04:51:44;94668.22;;;20.98;35.03
22389;BME280;11362;48.102;11.620;2023-04-22T04:54:09;94677.28;;;20.98;35.00
22389;BME280;11362;48.102;11.620;2023-04-22T04:56:35;94677.72;;;20.97;35.21
22389;BME280;11362;48.102;11.620;2023-04-22T04:59:00;94672.56;;;20.99;35.01
22389;BME280;11362;48.102;11.620;2023-04-22T05:01:25;94678.84;;;20.99;34.96
22389;BME280;11362;48.102;11.620;2023-04-22T05:03:50;94673.75;;;20.98;35.08
22389;BME280;11362;48.102;11.620;2023-04-22T05:06:16;94676.53;;;20.98;35.03
22389;BME280;11362;48.102;11.620;2023-04-22T05:08:41;94674.97;;;20.97;35.38
22389;BME280;11362;48.102;11.620;2023-04-22T05:11:06;94673.75;;;20.98;35.11
22389;BME280;11362;48.102;11.620;2023-04-22T05:13:31;94678.47;;;20.97;35.03
22389;BME280;11362;48.102;11.620;2023-04-22T05:15:57;94677.72;;;20.97;35.00
22389;BME280;11362;48.102;11.620;2023-04-22T05:18:22;94676.53;;;20.98;35.14
22389;BME280;11362;48.102;11.620;2023-04-22T05:20:47;94676.91;;;20.96;34.83
22389;BME280;11362;48.102;11.620;2023-04-22T05:23:13;94669.44;;;20.97;34.96
22389;BME280;11362;48.102;11.620;2023-04-22T05:25:38;94678.47;;;20.97;34.88
22389;BME280;11362;48.102;11.620;2023-04-22T05:28:03;94669.00;;;20.98;35.13
22389;BME280;11362;48.102;11.620;2023-04-22T05:30:29;94672.19;;;20.97;34.85
22389;BME280;11362;48.102;11.620;2023-04-22T05:32:54;94676.13;;;20.96;34.96
22389;BME280;11362;48.102;11.620;2023-04-22T05:35:19;94679.69;;;20.96;34.89
22389;BME280;11362;48.102;11.620;2023-04-22T05:37:45;94675.72;;;20.97;34.88
22389;BME280;11362;48.102;11.620;2023-04-22T05:40:10;94673.75;;;20.98;34.93
22389;BME280;11362;48.102;11.620;2023-04-22T05:42:35;94679.28;;;20.98;34.99
22389;BME280;11362;48.102;11.620;2023-04-22T05:45:01;94674.53;;;20.98;35.10
22389;BME280;11362;48.102;11.620;2023-04-22T05:47:26;94682.03;;;20.98;34.98
22389;BME280;11362;48.102;11.620;2023-04-22T05:49:51;94691.09;;;20.98;34.87
22389;BME280;11362;48.102;11.620;2023-04-22T05:52:17;94682.03;;;20.98;34.93
22389;BME280;11362;48.102;11.620;2023-04-22T05:54:42;94691.09;;;20.98;34.95
22389;BME280;11362;48.102;11.620;2023-04-22T05:57:07;94704.13;;;20.98;34.83
22389;BME280;11362;48.102;11.620;2023-04-22T05:59:32;94698.97;;;21.00;34.99
22389;BME280;11362;48.102;11.620;2023-04-22T06:01:58;94698.97;;;21.00;35.19
22389;BME280;11362;48.102;11.620;2023-04-22T06:04:23;94699.75;;;21.00;34.94
22389;BME280;11362;48.102;11.620;2023-04-22T06:06:49;94706.03;;;21.01;35.34
22389;BME280;11362;48.102;11.620;2023-04-22T06:09:14;94710.38;;;21.02;34.88
22389;BME280;11362;48.102;11.620;2023-04-22T06:11:39;94707.25;;;21.00;35.09
22389;BME280;11362;48.102;11.620;2023-04-22T06:14:05;94716.72;;;20.99;35.03
22389;BME280;11362;48.102;11.620;2023-04-22T06:16:30;94719.50;;;20.99;35.03
22389;BME280;11362;48.102;11.620;2023-04-22T06:18:55;94714.72;;;20.99;35.14
22389;BME280;11362;48.102;11.620;2023-04-22T06:21:21;94722.63;;;21.01;34.96
22389;BME280;11362;48.102;11.620;2023-04-22T06:23:46;94726.94;;;21.02;34.96
22389;BME280;11362;48.102;11.620;2023-04-22T06:26:11;94726.94;;;21.02;34.87
22389;BME280;11362;48.102;11.620;2023-04-22T06:28:37;94724.16;;;21.02;34.94
22389;BME280;11362;48.102;11.620;2023-04-22T06:31:02;94731.25;;;21.03;35.24
22389;BME280;11362;48.102;11.620;2023-04-22T06:33:27;94728.50;;;21.03;35.14
22389;BME280;11362;48.102;11.620;2023-04-22T06:35:52;94718.25;;;21.03;34.89
22389;BME280;11362;48.102;11.620;2023-04-22T06:38:18;94715.88;;;21.02;34.88
22389;BME280;11362;48.102;11.620;2023-04-22T06:40:43;94728.50;;;21.03;34.98
22389;BME280;11362;48.102;11.620;2023-04-22T06:43:08;94722.63;;;21.01;34.94
22389;BME280;11362;48.102;11.620;2023-04-22T06:45:34;94724.16;;;21.02;35.16
22389;BME280;11362;48.102;11.620;2023-04-22T06:47:59;94720.66;;;21.01;34.93
22389;BME280;11362;48.102;11.620;2023-04-22T06:50:24;94726.94;;;21.02;35.03
22389;BME280;11362;48.102;11.620;2023-04-22T06:52:50;94724.56;;;21.04;35.00
22389;BME280;11362;48.102;11.620;2023-04-22T06:55:15;94724.16;;;21.02;34.86
22389;BME280;11362;48.102;11.620;2023-04-22T06:57:40;94730.50;;;21.02;35.03
22389;BME280;11362;48.102;11.620;2023-04-22T07:00:06;94721.41;;;21.02;35.17
22389;BME280;11362;48.102;11.620;2023-04-22T07:02:32;94729.69;;;21.02;35.18
22389;BME280;11362;48.102;11.620;2023-04-22T07:04:57;94725.72;;;21.03;34.86
22389;BME280;11362;48.102;11.620;2023-04-22T07:07:23;94716.69;;;21.02;35.10
22389;BME280;11362;48.102;11.620;2023-04-22T07:09:48;94719.03;;;21.04;35.11
22389;BME280;11362;48.102;11.620;2023-04-22T07:12:13;94720.59;;;21.05;35.01
22389;BME280;11362;48.102;11.620;2023-04-22T07:14:43;94719.81;;;21.04;35.03
22389;BME280;11362;48.102;11.620;2023-04-22T07:17:09;94723.38;;;21.05;34.74
22389;BME280;11362;48.102;11.620;2023-04-22T07:19:34;94713.53;;;21.04;35.11
22389;BME280;11362;48.102;11.620;2023-04-22T07:21:59;94713.13;;;21.02;34.93
22389;BME280;11362;48.102;11.620;2023-04-22T07:24:24;94717.03;;;21.04;34.83
22389;BME280;11362;48.102;11.620;2023-04-22T07:26:50;94717.44;;;21.03;34.99
22389;BME280;11362;48.102;11.620;2023-04-22T07:29:15;94713.94;;;21.02;35.16
22389;BME280;11362;48.102;11.620;2023-04-22T07:31:40;94713.53;;;21.04;34.96
22389;BME280;11362;48.102;11.620;2023-04-22T07:34:06;94709.16;;;21.03;35.16
22389;BME280;11362;48.102;11.620;2023-04-22T07:36:31;94709.16;;;21.03;34.78
22389;BME280;11362;48.102;11.620;2023-04-22T07:38:56;94704.44;;;21.03;34.74
22389;BME280;11362;48.102;11.620;2023-04-22T07:41:22;94699.72;;;21.04;34.91
22389;BME280;11362;48.102;11.620;2023-04-22T07:43:47;94700.47;;;21.04;34.92
22389;BME280;11362;48.102;11.620;2023-04-22T07:46:12;94709.56;;;21.05;34.95
22389;BME280;11362;48.102;11.620;2023-04-22T07:48:37;94704.44;;;21.03;34.90
22389;BME280;11362;48.102;11.620;2023-04-22T07:51:03;94716.28;;;21.04;34.92
22389;BME280;11362;48.102;11.620;2023-04-22T07:53:28;94712.31;;;21.05;35.16
22389;BME280;11362;48.102;11.620;2023-04-22T07:55:57;94716.63;;;21.06;35.03
22389;BME280;11362;48.102;11.620;2023-04-22T07:58:22;94713.88;;;21.06;34.84
22389;BME280;11362;48.102;11.620;2023-04-22T08:00:47;94714.66;;;21.06;34.77
22389;BME280;11362;48.102;11.620;2023-04-22T08:03:13;94711.88;;;21.06;34.92
22389;BME280;11362;48.102;11.620;2023-04-22T08:05:38;94705.97;;;21.08;34.88
22389;BME280;11362;48.102;11.620;2023-04-22T08:08:04;94707.56;;;21.05;35.19
22389;BME280;11362;48.102;11.620;2023-04-22T08:10:29;94709.91;;;21.07;34.97
22389;BME280;11362;48.102;11.620;2023-04-22T08:12:54;94709.91;;;21.07;35.17
22389;BME280;11362;48.102;11.620;2023-04-22T08:15:21;94707.16;;;21.07;34.95
22389;BME280;11362;48.102;11.620;2023-04-22T08:17:46;94707.16;;;21.07;35.21
22389;BME280;11362;48.102;11.620;2023-04-22T08:20:11;94710.31;;;21.05;35.21
22389;BME280;11362;48.102;11.620;2023-04-22T08:22:36;94702.84;;;21.06;34.94
22389;BME280;11362;48.102;11.620;2023-04-22T08:25:02;94715.44;;;21.07;35.20
22389;BME280;11362;48.102;11.620;2023-04-22T08:27:27;94711.88;;;21.06;34.93
22389;BME280;11362;48.102;11.620;2023-04-22T08:29:52;94703.59;;;21.06;34.84
22389;BME280;11362;48.102;11.620;2023-04-22T08:32:18;94701.63;;;21.07;35.14
22389;BME280;11362;48.102;11.620;2023-04-22T08:34:43;94700.44;;;21.08;34.94
22389;BME280;11362;48.102;11.620;2023-04-22T08:37:08;94710.72;;;21.07;35.13
22389;BME280;11362;48.102;11.620;2023-04-22T08:39:34;94712.69;;;21.07;35.07
22389;BME280;11362;48.102;11.620;2023-04-22T08:41:59;94715.81;;;21.09;35.09
22389;BME280;11362;48.102;11.620;2023-04-22T08:44:24;94706.78;;;21.05;35.36
22389;BME280;11362;48.102;11.620;2023-04-22T08:46:50;94709.91;;;21.07;34.99
22389;BME280;11362;48.102;11.620;2023-04-22T08:49:17;94710.72;;;21.07;35.15
22389;BME280;11362;48.102;11.620;2023-04-22T08:51:43;94705.97;;;21.08;35.28
22389;BME280;11362;48.102;11.620;2023-04-22T08:54:09;94710.28;;;21.09;35.12
22389;BME280;11362;48.102;11.620;2023-04-22T08:56:36;94709.06;;;21.10;35.27
22389;BME280;11362;48.102;11.620;2023-04-22T08:59:05;94708.31;;;21.09;35.16
22389;BME280;11362;48.102;11.620;2023-04-22T09:01:30;94701.22;;;21.08;34.85
22389;BME280;11362;48.102;11.620;2023-04-22T09:03:59;94702.44;;;21.07;35.11
22389;BME280;11362;48.102;11.620;2023-04-22T09:06:25;94700.06;;;21.06;35.11
22389;BME280;11362;48.102;11.620;2023-04-22T09:08:51;94698.88;;;21.07;35.15
22389;BME280;11362;48.102;11.620;2023-04-22T09:11:17;94696.13;;;21.07;35.32
22389;BME280;11362;48.102;11.620;2023-04-22T09:13:42;94692.94;;;21.08;34.91
22389;BME280;11362;48.102;11.620;2023-04-22T09:16:08;94698.03;;;21.10;35.15
22389;BME280;11362;48.102;11.620;2023-04-22T09:18:43;94698.47;;;21.08;35.13
22389;BME280;11362;48.102;11.620;2023-04-22T09:21:09;94699.22;;;21.09;35.18
22389;BME280;11362;48.102;11.620;2023-04-22T09:23:49;94693.72;;;21.09;35.06
22389;BME280;11362;48.102;11.620;2023-04-22T09:26:17;94695.28;;;21.10;34.97
22389;BME280;11362;48.102;11.620;2023-04-22T09:28:53;94696.88;;;21.11;35.18
22389;BME280;11362;48.102;11.620;2023-04-22T09:31:22;94684.22;;;21.10;35.05
22389;BME280;11362;48.102;11.620;2023-04-22T09:33:58;94687.78;;;21.10;34.93
22389;BME280;11362;48.102;11.620;2023-04-22T09:36:28;94694.09;;;21.11;35.24
22389;BME280;11362;48.102;11.620;2023-04-22T09:38:58;94687.78;;;21.10;34.95
22389;BME280;11362;48.102;11.620;2023-04-22T09:41:35;94685.38;;;21.12;35.12
22389;BME280;11362;48.102;11.620;2023-04-22T09:44:02;94687.38;;;21.12;35.06
22389;BME280;11362;48.102;11.620;2023-04-22T09:46:29;94683.41;;;21.13;35.05
22389;BME280;11362;48.102;11.620;2023-04-22T09:48:56;94684.63;;;21.12;34.84
22389;BME280;11362;48.102;11.620;2023-04-22T09:51:21;94681.84;;;21.12;35.21
22389;BME280;11362;48.102;11.620;2023-04-22T09:53:57;94678.28;;;21.11;34.92
22389;BME280;11362;48.102;11.620;2023-04-22T09:59:05;94673.56;;;21.12;35.16
22389;BME280;11362;48.102;11.620;2023-04-22T10:01:37;94677.88;;;21.13;35.10
22389;BME280;11362;48.102;11.620;2023-04-22T10:04:02;94664.09;;;21.13;35.28
22389;BME280;11362;48.102;11.620;2023-04-22T10:06:27;94653.03;;;21.13;34.92
22389;BME280;11362;48.102;11.620;2023-04-22T10:08:53;94652.69;;;21.11;35.05
22389;BME280;11362;48.102;11.620;2023-04-22T10:11:18;94657.34;;;21.14;35.14
22389;BME280;11362;48.102;11.620;2023-04-22T10:13:44;94653.03;;;21.13;34.94
22389;BME280;11362;48.102;11.620;2023-04-22T10:16:09;94653.81;;;21.13;35.04
22389;BME280;11362;48.102;11.620;2023-04-22T10:18:38;94646.31;;;21.14;34.91
22389;BME280;11362;48.102;11.620;2023-04-22T10:21:04;94647.50;;;21.13;35.04
22389;BME280;11362;48.102;11.620;2023-04-22T10:23:31;94644.75;;;21.13;35.03
22389;BME280;11362;48.102;11.620;2023-04-22T10:25:57;94642.00;;;21.13;34.84
22389;BME280;11362;48.102;11.620;2023-04-22T10:28:25;94643.56;;;21.14;34.90
22389;BME280;11362;48.102;11.620;2023-04-22T10:30:52;94640.44;;;21.12;35.03
22389;BME280;11362;48.102;11.620;2023-04-22T10:41:27;94638.03;;;21.14;35.07
22389;BME280;11362;48.102;11.620;2023-04-22T10:44:01;94642.34;;;21.15;35.11
22389;BME280;11362;48.102;11.620;2023-04-22T10:48:58;94631.31;;;21.15;35.06
22389;BME280;11362;48.102;11.620;2023-04-22T10:54:06;94625.78;;;21.15;35.21
22389;BME280;11362;48.102;11.620;2023-04-22T10:56:31;94623.03;;;21.15;34.69
22389;BME280;11362;48.102;11.620;2023-04-22T10:58:56;94623.81;;;21.15;35.11
22389;BME280;11362;48.102;11.620;2023-04-22T11:01:22;94619.06;;;21.16;34.79
22389;BME280;11362;48.102;11.620;2023-04-22T11:03:47;94623.03;;;21.15;34.93
22389;BME280;11362;48.102;11.620;2023-04-22T11:06:17;94622.63;;;21.16;34.95
22389;BME280;11362;48.102;11.620;2023-04-22T11:08:47;94625.38;;;21.16;35.04
22389;BME280;11362;48.102;11.620;2023-04-22T11:11:15;94630.09;;;21.16;34.87
22389;BME280;11362;48.102;11.620;2023-04-22T11:13:41;94628.13;;;21.16;34.84
22389;BME280;11362;48.102;11.620;2023-04-22T11:16:07;94618.28;;;21.15;34.92
22389;BME280;11362;48.102;11.620;2023-04-22T11:18:33;94613.53;;;21.16;35.00
22389;BME280;11362;48.102;11.620;2023-04-22T11:21:02;94621.41;;;21.17;35.01
22389;BME280;11362;48.102;11.620;2023-04-22T11:23:28;94611.91;;;21.18;34.90
22389;BME280;11362;48.102;11.620;2023-04-22T11:25:55;94618.25;;;21.19;34.86
22389;BME280;11362;48.102;11.620;2023-04-22T11:28:21;94610.72;;;21.19;35.13
22389;BME280;11362;48.102;11.620;2023-04-22T11:30:46;94609.97;;;21.19;35.05
22389;BME280;11362;48.102;11.620;2023-04-22T11:33:13;94605.59;;;21.18;35.03
22389;BME280;11362;48.102;11.620;2023-04-22T11:35:39;94604.03;;;21.17;34.87
22389;BME280;11362;48.102;11.620;2023-04-22T11:38:05;94606.41;;;21.18;35.02
22389;BME280;11362;48.102;11.620;2023-04-22T11:40:34;94605.59;;;21.18;34.92
22389;BME280;11362;48.102;11.620;2023-04-22T11:43:01;94601.66;;;21.19;34.78
22389;BME280;11362;48.102;11.620;2023-04-22T11:45:31;94598.47;;;21.20;34.93
22389;BME280;11362;48.102;11.620;2023-04-22T11:47:57;94611.88;;;21.22;34.85
22389;BME280;11362;48.102;11.620;2023-04-22T11:50:25;94610.31;;;21.21;34.93
22389;BME280;11362;48.102;11.620;2023-04-22T11:53:00;94608.31;;;21.21;34.90
22389;BME280;11362;48.102;11.620;2023-04-22T11:55:31;94611.88;;;21.22;35.12
22389;BME280;11362;48.102;11.620;2023-04-22T11:58:16;94602.38;;;21.23;34.85
22389;BME280;11362;48.102;11.620;2023-04-22T12:00:48;94600.81;;;21.22;34.92
22389;BME280;11362;48.102;11.620;2023-04-22T12:03:15;94602.38;;;21.23;34.99
22389;BME280;11362;48.102;11.620;2023-04-22T12:10:50;94592.53;;;21.22;34.84
22389;BME280;11362;48.102;11.620;2023-04-22T12:13:22;94594.09;;;21.23;35.06
22389;BME280;11362;48.102;11.620;2023-04-22T12:15:54;94592.53;;;21.22;34.89
22389;BME280;11362;48.102;11.620;2023-04-22T12:18:33;94586.59;;;21.23;34.92
22389;BME280;11362;48.102;11.620;2023-04-22T12:21:01;94583.06;;;21.23;35.02
22389;BME280;11362;48.102;11.620;2023-04-22T12:23:26;94590.56;;;21.22;35.12
22389;BME280;11362;48.102;11.620;2023-04-22T12:25:51;94588.22;;;21.21;35.34
22389;BME280;11362;48.102;11.620;2023-04-22T12:28:16;94591.34;;;21.23;35.04
22389;BME280;11362;48.102;11.620;2023-04-22T12:30:43;94592.13;;;21.23;34.91
22389;BME280;11362;48.102;11.620;2023-04-22T12:33:08;94587.38;;;21.24;34.98
22389;BME280;11362;48.102;11.620;2023-04-22T12:35:33;94583.41;;;21.25;35.14
22389;BME280;11362;48.102;11.620;2023-04-22T12:37:59;94585.41;;;21.24;35.04
22389;BME280;11362;48.102;11.620;2023-04-22T12:40:24;94581.84;;;21.24;34.97
22389;BME280;11362;48.102;11.620;2023-04-22T12:42:50;94577.88;;;21.25;34.92
22389;BME280;11362;48.102;11.620;2023-04-22T12:45:16;94579.47;;;21.26;34.77
22389;BME280;11362;48.102;11.620;2023-04-22T12:47:41;94579.47;;;21.26;35.03
22389;BME280;11362;48.102;11.620;2023-04-22T12:50:06;94585.00;;;21.26;34.93
22389;BME280;11362;48.102;11.620;2023-04-22T12:52:33;94579.81;;;21.28;34.99
22389;BME280;11362;48.102;11.620;2023-04-22T12:54:59;94581.03;;;21.27;34.93
22389;BME280;11362;48.102;11.620;2023-04-22T12:57:24;94571.94;;;21.26;34.97
22389;BME280;11362;48.102;11.620;2023-04-22T12:59:50;94575.50;;;21.27;35.12
22389;BME280;11362;48.102;11.620;2023-04-22T13:02:15;94570.75;;;21.27;35.07
22389;BME280;11362;48.102;11.620;2023-04-22T13:04:40;94571.53;;;21.28;35.03